sensor_id;sensor_type;location;lat;lon;timestamp;P1;durP1;ratioP1;P2;durP2;ratioP2
36385;SDS011;24125;47.482;8.770;2022-11-21T00:01:17;0.98;;;0.40;;
36385;SDS011;24125;47.482;8.770;2022-11-21T00:03:52;0.77;;;0.47;;
36385;SDS011;24125;47.482;8.770;2022-11-21T00:06:24;0.50;;;0.40;;
36385;SDS011;24125;47.482;8.770;2022-11-21T00:08:57;0.60;;;0.30;;
36385;SDS011;24125;47.482;8.770;2022-11-21T00:11:30;0.95;;;0.40;;
36385;SDS011;24125;47.482;8.770;2022-11-21T00:14:03;0.55;;;0.50;;
36385;SDS011;24125;47.482;8.770;2022-11-21T00:16:38;0.40;;;0.40;;
36385;SDS011;24125;47.482;8.770;2022-11-21T00:19:11;0.52;;;0.45;;
36385;SDS011;24125;47.482;8.770;2022-11-21T00:21:44;0.63;;;0.50;;
36385;SDS011;24125;47.482;8.770;2022-11-21T00:24:17;0.85;;;0.32;;
36385;SDS011;24125;47.482;8.770;2022-11-21T00:26:50;1.08;;;0.35;;
36385;SDS011;24125;47.482;8.770;2022-11-21T00:29:23;0.57;;;0.40;;
36385;SDS011;24125;47.482;8.770;2022-11-21T00:31:57;1.73;;;0.43;;
36385;SDS011;24125;47.482;8.770;2022-11-21T00:34:30;0.85;;;0.50;;
36385;SDS011;24125;47.482;8.770;2022-11-21T00:37:03;0.30;;;0.28;;
36385;SDS011;24125;47.482;8.770;2022-11-21T00:39:36;0.63;;;0.40;;
36385;SDS011;24125;47.482;8.770;2022-11-21T00:42:08;1.13;;;0.50;;
36385;SDS011;24125;47.482;8.770;2022-11-21T00:44:41;1.50;;;0.57;;
36385;SDS011;24125;47.482;8.770;2022-11-21T00:47:15;2.15;;;0.65;;
36385;SDS011;24125;47.482;8.770;2022-11-21T00:49:49;2.65;;;0.50;;
36385;SDS011;24125;47.482;8.770;2022-11-21T00:52:22;1.13;;;0.40;;
36385;SDS011;24125;47.482;8.770;2022-11-21T00:54:54;0.68;;;0.40;;
36385;SDS011;24125;47.482;8.770;2022-11-21T00:57:27;2.10;;;1.17;;
36385;SDS011;24125;47.482;8.770;2022-11-21T01:00:00;2.83;;;0.68;;
36385;SDS011;24125;47.482;8.770;2022-11-21T01:02:35;0.80;;;0.50;;
36385;SDS011;24125;47.482;8.770;2022-11-21T01:05:08;1.00;;;0.50;;
36385;SDS011;24125;47.482;8.770;2022-11-21T01:07:41;1.75;;;0.50;;
36385;SDS011;24125;47.482;8.770;2022-11-21T01:10:14;1.15;;;0.40;;
36385;SDS011;24125;47.482;8.770;2022-11-21T01:12:47;1.45;;;0.40;;
36385;SDS011;24125;47.482;8.770;2022-11-21T01:15:20;1.30;;;0.40;;
36385;SDS011;24125;47.482;8.770;2022-11-21T01:17:54;1.05;;;0.30;;
36385;SDS011;24125;47.482;8.770;2022-11-21T01:20:27;1.10;;;0.40;;
36385;SDS011;24125;47.482;8.770;2022-11-21T01:23:00;1.15;;;0.55;;
36385;SDS011;24125;47.482;8.770;2022-11-21T01:25:33;1.38;;;0.40;;
36385;SDS011;24125;47.482;8.770;2022-11-21T01:28:06;0.40;;;0.35;;
36385;SDS011;24125;47.482;8.770;2022-11-21T01:30:39;1.27;;;0.40;;
36385;SDS011;24125;47.482;8.770;2022-11-21T01:33:13;0.45;;;0.38;;
36385;SDS011;24125;47.482;8.770;2022-11-21T01:35:46;1.17;;;0.43;;
36385;SDS011;24125;47.482;8.770;2022-11-21T01:38:19;1.58;;;0.52;;
36385;SDS011;24125;47.482;8.770;2022-11-21T01:40:52;2.65;;;0.47;;
36385;SDS011;24125;47.482;8.770;2022-11-21T01:43:25;0.93;;;0.30;;
36385;SDS011;24125;47.482;8.770;2022-11-21T01:45:58;2.80;;;0.50;;
36385;SDS011;24125;47.482;8.770;2022-11-21T01:48:35;0.55;;;0.30;;
36385;SDS011;24125;47.482;8.770;2022-11-21T01:51:14;2.17;;;0.38;;
36385;SDS011;24125;47.482;8.770;2022-11-21T01:53:52;0.80;;;0.40;;
36385;SDS011;24125;47.482;8.770;2022-11-21T01:56:32;0.90;;;0.32;;
36385;SDS011;24125;47.482;8.770;2022-11-21T01:59:11;1.73;;;0.40;;
36385;SDS011;24125;47.482;8.770;2022-11-21T02:01:50;1.10;;;0.40;;
36385;SDS011;24125;47.482;8.770;2022-11-21T02:04:30;0.80;;;0.40;;
36385;SDS011;24125;47.482;8.770;2022-11-21T02:07:05;0.55;;;0.22;;
36385;SDS011;24125;47.482;8.770;2022-11-21T02:09:39;2.65;;;0.50;;
36385;SDS011;24125;47.482;8.770;2022-11-21T02:12:20;1.42;;;0.47;;
36385;SDS011;24125;47.482;8.770;2022-11-21T02:14:55;0.50;;;0.30;;
36385;SDS011;24125;47.482;8.770;2022-11-21T02:17:30;2.08;;;0.40;;
36385;SDS011;24125;47.482;8.770;2022-11-21T02:20:06;0.77;;;0.45;;
36385;SDS011;24125;47.482;8.770;2022-11-21T02:22:42;1.30;;;0.50;;
36385;SDS011;24125;47.482;8.770;2022-11-21T02:25:21;1.60;;;0.43;;
36385;SDS011;24125;47.482;8.770;2022-11-21T02:27:58;0.80;;;0.40;;
36385;SDS011;24125;47.482;8.770;2022-11-21T02:30:34;0.77;;;0.30;;
36385;SDS011;24125;47.482;8.770;2022-11-21T02:33:09;1.25;;;0.40;;
36385;SDS011;24125;47.482;8.770;2022-11-21T02:35:43;3.38;;;0.40;;
36385;SDS011;24125;47.482;8.770;2022-11-21T02:38:16;3.20;;;0.70;;
36385;SDS011;24125;47.482;8.770;2022-11-21T02:40:57;0.50;;;0.40;;
36385;SDS011;24125;47.482;8.770;2022-11-21T02:43:35;1.60;;;0.63;;
36385;SDS011;24125;47.482;8.770;2022-11-21T02:46:13;1.42;;;0.40;;
36385;SDS011;24125;47.482;8.770;2022-11-21T02:48:47;1.48;;;0.50;;
36385;SDS011;24125;47.482;8.770;2022-11-21T02:51:19;1.70;;;0.40;;
36385;SDS011;24125;47.482;8.770;2022-11-21T02:53:53;0.43;;;0.30;;
36385;SDS011;24125;47.482;8.770;2022-11-21T02:56:27;1.10;;;0.30;;
36385;SDS011;24125;47.482;8.770;2022-11-21T02:59:00;1.15;;;0.28;;
36385;SDS011;24125;47.482;8.770;2022-11-21T03:01:33;0.60;;;0.35;;
36385;SDS011;24125;47.482;8.770;2022-11-21T03:04:06;0.88;;;0.35;;
36385;SDS011;24125;47.482;8.770;2022-11-21T03:06:39;1.33;;;0.38;;
36385;SDS011;24125;47.482;8.770;2022-11-21T03:09:12;0.80;;;0.40;;
36385;SDS011;24125;47.482;8.770;2022-11-21T03:11:46;1.67;;;0.40;;
36385;SDS011;24125;47.482;8.770;2022-11-21T03:14:19;1.13;;;0.50;;
36385;SDS011;24125;47.482;8.770;2022-11-21T03:16:52;0.35;;;0.30;;
36385;SDS011;24125;47.482;8.770;2022-11-21T03:19:25;2.13;;;0.47;;
36385;SDS011;24125;47.482;8.770;2022-11-21T03:21:58;0.95;;;0.63;;
36385;SDS011;24125;47.482;8.770;2022-11-21T03:24:31;1.10;;;0.60;;
36385;SDS011;24125;47.482;8.770;2022-11-21T03:27:05;2.08;;;0.45;;
36385;SDS011;24125;47.482;8.770;2022-11-21T03:29:38;0.63;;;0.20;;
36385;SDS011;24125;47.482;8.770;2022-11-21T03:32:12;1.40;;;0.38;;
36385;SDS011;24125;47.482;8.770;2022-11-21T03:34:44;3.17;;;0.40;;
36385;SDS011;24125;47.482;8.770;2022-11-21T03:37:17;0.80;;;0.30;;
36385;SDS011;24125;47.482;8.770;2022-11-21T03:39:50;1.33;;;0.50;;
36385;SDS011;24125;47.482;8.770;2022-11-21T03:42:25;3.05;;;0.50;;
36385;SDS011;24125;47.482;8.770;2022-11-21T03:44:57;1.75;;;0.30;;
36385;SDS011;24125;47.482;8.770;2022-11-21T03:47:30;2.60;;;0.32;;
36385;SDS011;24125;47.482;8.770;2022-11-21T03:50:03;4.18;;;0.65;;
36385;SDS011;24125;47.482;8.770;2022-11-21T03:52:37;1.48;;;0.40;;
36385;SDS011;24125;47.482;8.770;2022-11-21T03:55:10;0.90;;;0.40;;
36385;SDS011;24125;47.482;8.770;2022-11-21T03:57:44;1.65;;;0.73;;
36385;SDS011;24125;47.482;8.770;2022-11-21T04:00:17;2.67;;;0.60;;
36385;SDS011;24125;47.482;8.770;2022-11-21T04:02:50;1.15;;;0.40;;
36385;SDS011;24125;47.482;8.770;2022-11-21T04:05:23;3.28;;;0.40;;
36385;SDS011;24125;47.482;8.770;2022-11-21T04:07:56;1.63;;;0.40;;
36385;SDS011;24125;47.482;8.770;2022-11-21T04:10:29;1.67;;;0.43;;
36385;SDS011;24125;47.482;8.770;2022-11-21T04:13:03;2.35;;;0.60;;
36385;SDS011;24125;47.482;8.770;2022-11-21T04:15:36;1.40;;;0.50;;
36385;SDS011;24125;47.482;8.770;2022-11-21T04:18:09;1.15;;;0.30;;
36385;SDS011;24125;47.482;8.770;2022-11-21T04:20:43;0.38;;;0.30;;
36385;SDS011;24125;47.482;8.770;2022-11-21T04:23:16;3.45;;;0.50;;
36385;SDS011;24125;47.482;8.770;2022-11-21T04:25:49;2.63;;;0.47;;
36385;SDS011;24125;47.482;8.770;2022-11-21T04:28:23;2.92;;;0.60;;
36385;SDS011;24125;47.482;8.770;2022-11-21T04:31:00;1.33;;;0.40;;
36385;SDS011;24125;47.482;8.770;2022-11-21T04:33:40;1.77;;;0.45;;
36385;SDS011;24125;47.482;8.770;2022-11-21T04:36:13;1.95;;;0.40;;
36385;SDS011;24125;47.482;8.770;2022-11-21T04:38:46;3.85;;;0.40;;
36385;SDS011;24125;47.482;8.770;2022-11-21T04:41:19;2.55;;;0.70;;
36385;SDS011;24125;47.482;8.770;2022-11-21T04:43:53;1.13;;;0.40;;
36385;SDS011;24125;47.482;8.770;2022-11-21T04:46:26;2.15;;;0.60;;
36385;SDS011;24125;47.482;8.770;2022-11-21T04:49:00;0.82;;;0.38;;
36385;SDS011;24125;47.482;8.770;2022-11-21T04:51:33;4.50;;;0.50;;
36385;SDS011;24125;47.482;8.770;2022-11-21T04:54:06;2.60;;;0.60;;
36385;SDS011;24125;47.482;8.770;2022-11-21T04:56:38;4.82;;;0.50;;
36385;SDS011;24125;47.482;8.770;2022-11-21T04:59:13;2.78;;;0.50;;
36385;SDS011;24125;47.482;8.770;2022-11-21T05:01:45;2.35;;;0.70;;
36385;SDS011;24125;47.482;8.770;2022-11-21T05:04:18;1.17;;;0.50;;
36385;SDS011;24125;47.482;8.770;2022-11-21T05:06:51;3.72;;;0.60;;
36385;SDS011;24125;47.482;8.770;2022-11-21T05:09:24;1.27;;;0.35;;
36385;SDS011;24125;47.482;8.770;2022-11-21T05:11:57;2.05;;;0.30;;
36385;SDS011;24125;47.482;8.770;2022-11-21T05:14:46;1.70;;;0.60;;
36385;SDS011;24125;47.482;8.770;2022-11-21T05:17:19;2.83;;;0.75;;
36385;SDS011;24125;47.482;8.770;2022-11-21T05:19:52;3.42;;;0.60;;
36385;SDS011;24125;47.482;8.770;2022-11-21T05:22:25;3.25;;;0.50;;
36385;SDS011;24125;47.482;8.770;2022-11-21T05:24:58;3.85;;;0.60;;
36385;SDS011;24125;47.482;8.770;2022-11-21T05:27:31;4.15;;;0.70;;
36385;SDS011;24125;47.482;8.770;2022-11-21T05:30:05;2.08;;;1.17;;
36385;SDS011;24125;47.482;8.770;2022-11-21T05:32:39;2.10;;;0.77;;
36385;SDS011;24125;47.482;8.770;2022-11-21T05:35:12;2.80;;;0.70;;
36385;SDS011;24125;47.482;8.770;2022-11-21T05:37:45;3.78;;;0.77;;
36385;SDS011;24125;47.482;8.770;2022-11-21T05:40:18;1.92;;;0.60;;
36385;SDS011;24125;47.482;8.770;2022-11-21T05:42:51;2.92;;;0.70;;
36385;SDS011;24125;47.482;8.770;2022-11-21T05:45:43;1.85;;;0.70;;
36385;SDS011;24125;47.482;8.770;2022-11-21T05:48:17;1.27;;;0.70;;
36385;SDS011;24125;47.482;8.770;2022-11-21T05:50:50;4.05;;;0.65;;
36385;SDS011;24125;47.482;8.770;2022-11-21T05:53:23;2.05;;;0.70;;
36385;SDS011;24125;47.482;8.770;2022-11-21T05:55:59;3.53;;;0.70;;
36385;SDS011;24125;47.482;8.770;2022-11-21T05:58:33;2.00;;;0.60;;
36385;SDS011;24125;47.482;8.770;2022-11-21T06:01:09;2.25;;;0.73;;
36385;SDS011;24125;47.482;8.770;2022-11-21T06:03:44;1.20;;;0.52;;
36385;SDS011;24125;47.482;8.770;2022-11-21T06:08:55;1.77;;;0.57;;
36385;SDS011;24125;47.482;8.770;2022-11-21T06:11:27;1.25;;;0.68;;
36385;SDS011;24125;47.482;8.770;2022-11-21T06:14:00;1.80;;;0.70;;
36385;SDS011;24125;47.482;8.770;2022-11-21T06:16:35;2.05;;;0.70;;
36385;SDS011;24125;47.482;8.770;2022-11-21T06:19:08;2.08;;;0.57;;
36385;SDS011;24125;47.482;8.770;2022-11-21T06:21:41;2.30;;;0.63;;
36385;SDS011;24125;47.482;8.770;2022-11-21T06:24:13;2.42;;;0.70;;
36385;SDS011;24125;47.482;8.770;2022-11-21T06:26:52;1.48;;;0.52;;
36385;SDS011;24125;47.482;8.770;2022-11-21T06:29:25;2.42;;;0.55;;
36385;SDS011;24125;47.482;8.770;2022-11-21T06:31:59;2.63;;;0.65;;
36385;SDS011;24125;47.482;8.770;2022-11-21T06:34:32;2.05;;;0.40;;
36385;SDS011;24125;47.482;8.770;2022-11-21T06:37:05;2.67;;;0.60;;
36385;SDS011;24125;47.482;8.770;2022-11-21T06:39:38;0.98;;;0.50;;
36385;SDS011;24125;47.482;8.770;2022-11-21T06:42:11;2.47;;;0.68;;
36385;SDS011;24125;47.482;8.770;2022-11-21T06:44:44;2.60;;;0.80;;
36385;SDS011;24125;47.482;8.770;2022-11-21T06:47:18;3.05;;;0.60;;
36385;SDS011;24125;47.482;8.770;2022-11-21T06:49:52;2.55;;;0.60;;
36385;SDS011;24125;47.482;8.770;2022-11-21T06:52:25;4.68;;;0.70;;
36385;SDS011;24125;47.482;8.770;2022-11-21T06:54:58;2.03;;;0.70;;
36385;SDS011;24125;47.482;8.770;2022-11-21T06:57:31;5.88;;;0.73;;
36385;SDS011;24125;47.482;8.770;2022-11-21T07:00:04;3.15;;;0.70;;
36385;SDS011;24125;47.482;8.770;2022-11-21T07:02:39;2.40;;;0.73;;
36385;SDS011;24125;47.482;8.770;2022-11-21T07:05:12;2.30;;;0.63;;
36385;SDS011;24125;47.482;8.770;2022-11-21T07:07:45;2.65;;;0.77;;
36385;SDS011;24125;47.482;8.770;2022-11-21T07:10:18;1.27;;;0.52;;
36385;SDS011;24125;47.482;8.770;2022-11-21T07:12:52;1.55;;;0.52;;
36385;SDS011;24125;47.482;8.770;2022-11-21T07:15:46;2.80;;;0.80;;
36385;SDS011;24125;47.482;8.770;2022-11-21T07:18:22;2.13;;;0.70;;
36385;SDS011;24125;47.482;8.770;2022-11-21T07:20:56;5.32;;;1.25;;
36385;SDS011;24125;47.482;8.770;2022-11-21T07:23:31;4.65;;;0.73;;
36385;SDS011;24125;47.482;8.770;2022-11-21T07:26:05;1.70;;;0.50;;
36385;SDS011;24125;47.482;8.770;2022-11-21T07:28:39;5.55;;;0.75;;
36385;SDS011;24125;47.482;8.770;2022-11-21T07:31:12;5.35;;;0.70;;
36385;SDS011;24125;47.482;8.770;2022-11-21T07:33:46;3.03;;;0.55;;
36385;SDS011;24125;47.482;8.770;2022-11-21T07:36:19;2.55;;;0.70;;
36385;SDS011;24125;47.482;8.770;2022-11-21T07:38:52;2.30;;;0.68;;
36385;SDS011;24125;47.482;8.770;2022-11-21T07:41:26;2.17;;;0.60;;
36385;SDS011;24125;47.482;8.770;2022-11-21T07:43:59;10.15;;;0.95;;
36385;SDS011;24125;47.482;8.770;2022-11-21T07:46:32;5.57;;;0.63;;
36385;SDS011;24125;47.482;8.770;2022-11-21T07:49:07;2.20;;;0.55;;
36385;SDS011;24125;47.482;8.770;2022-11-21T07:51:39;2.40;;;0.50;;
36385;SDS011;24125;47.482;8.770;2022-11-21T07:54:13;3.15;;;0.65;;
36385;SDS011;24125;47.482;8.770;2022-11-21T07:56:46;1.50;;;0.50;;
36385;SDS011;24125;47.482;8.770;2022-11-21T07:59:18;2.22;;;0.60;;
36385;SDS011;24125;47.482;8.770;2022-11-21T08:01:51;2.22;;;0.52;;
36385;SDS011;24125;47.482;8.770;2022-11-21T08:04:26;2.83;;;0.50;;
36385;SDS011;24125;47.482;8.770;2022-11-21T08:07:02;2.88;;;0.90;;
36385;SDS011;24125;47.482;8.770;2022-11-21T08:09:35;2.67;;;0.70;;
36385;SDS011;24125;47.482;8.770;2022-11-21T08:12:10;3.63;;;0.70;;
36385;SDS011;24125;47.482;8.770;2022-11-21T08:14:44;2.20;;;0.70;;
36385;SDS011;24125;47.482;8.770;2022-11-21T08:17:17;2.92;;;0.60;;
36385;SDS011;24125;47.482;8.770;2022-11-21T08:19:51;4.53;;;0.75;;
36385;SDS011;24125;47.482;8.770;2022-11-21T08:22:24;1.58;;;0.60;;
36385;SDS011;24125;47.482;8.770;2022-11-21T08:24:57;2.53;;;0.57;;
36385;SDS011;24125;47.482;8.770;2022-11-21T08:27:30;3.92;;;0.65;;
36385;SDS011;24125;47.482;8.770;2022-11-21T08:30:04;1.67;;;0.60;;
36385;SDS011;24125;47.482;8.770;2022-11-21T08:32:38;3.83;;;0.85;;
36385;SDS011;24125;47.482;8.770;2022-11-21T08:35:13;1.40;;;0.40;;
36385;SDS011;24125;47.482;8.770;2022-11-21T08:37:46;2.78;;;0.70;;
36385;SDS011;24125;47.482;8.770;2022-11-21T08:40:19;1.63;;;0.77;;
36385;SDS011;24125;47.482;8.770;2022-11-21T08:42:55;2.88;;;0.80;;
36385;SDS011;24125;47.482;8.770;2022-11-21T08:45:29;4.32;;;0.60;;
36385;SDS011;24125;47.482;8.770;2022-11-21T08:48:03;4.55;;;0.70;;
36385;SDS011;24125;47.482;8.770;2022-11-21T08:50:41;3.67;;;0.77;;
36385;SDS011;24125;47.482;8.770;2022-11-21T08:53:14;2.05;;;0.50;;
36385;SDS011;24125;47.482;8.770;2022-11-21T08:55:47;2.80;;;0.73;;
36385;SDS011;24125;47.482;8.770;2022-11-21T08:58:20;0.77;;;0.57;;
36385;SDS011;24125;47.482;8.770;2022-11-21T09:00:53;4.53;;;0.60;;
36385;SDS011;24125;47.482;8.770;2022-11-21T09:03:26;3.75;;;0.68;;
36385;SDS011;24125;47.482;8.770;2022-11-21T09:06:03;3.38;;;0.80;;
36385;SDS011;24125;47.482;8.770;2022-11-21T09:08:36;3.22;;;0.60;;
36385;SDS011;24125;47.482;8.770;2022-11-21T09:11:10;1.05;;;0.50;;
36385;SDS011;24125;47.482;8.770;2022-11-21T09:13:43;1.60;;;0.47;;
36385;SDS011;24125;47.482;8.770;2022-11-21T09:16:36;3.88;;;0.60;;
36385;SDS011;24125;47.482;8.770;2022-11-21T09:19:32;2.25;;;0.60;;
36385;SDS011;24125;47.482;8.770;2022-11-21T09:22:06;2.33;;;0.65;;
36385;SDS011;24125;47.482;8.770;2022-11-21T09:24:39;2.83;;;0.60;;
36385;SDS011;24125;47.482;8.770;2022-11-21T09:27:12;2.00;;;0.57;;
36385;SDS011;24125;47.482;8.770;2022-11-21T09:29:45;2.03;;;0.57;;
36385;SDS011;24125;47.482;8.770;2022-11-21T09:32:24;3.75;;;0.70;;
36385;SDS011;24125;47.482;8.770;2022-11-21T09:34:57;4.18;;;0.85;;
36385;SDS011;24125;47.482;8.770;2022-11-21T09:37:34;2.30;;;0.85;;
36385;SDS011;24125;47.482;8.770;2022-11-21T09:40:08;1.35;;;0.50;;
36385;SDS011;24125;47.482;8.770;2022-11-21T09:45:57;1.92;;;0.52;;
36385;SDS011;24125;47.482;8.770;2022-11-21T09:48:35;0.90;;;0.32;;
36385;SDS011;24125;47.482;8.770;2022-11-21T09:51:18;1.60;;;0.30;;
36385;SDS011;24125;47.482;8.770;2022-11-21T09:53:55;2.63;;;0.70;;
36385;SDS011;24125;47.482;8.770;2022-11-21T09:56:32;2.03;;;0.60;;
36385;SDS011;24125;47.482;8.770;2022-11-21T09:59:15;4.38;;;0.40;;
36385;SDS011;24125;47.482;8.770;2022-11-21T10:01:56;2.03;;;0.60;;
36385;SDS011;24125;47.482;8.770;2022-11-21T10:04:29;3.10;;;0.60;;
36385;SDS011;24125;47.482;8.770;2022-11-21T10:07:03;2.75;;;0.77;;
36385;SDS011;24125;47.482;8.770;2022-11-21T10:09:44;1.92;;;0.50;;
36385;SDS011;24125;47.482;8.770;2022-11-21T10:12:27;1.55;;;0.52;;
36385;SDS011;24125;47.482;8.770;2022-11-21T10:15:20;1.10;;;0.47;;
36385;SDS011;24125;47.482;8.770;2022-11-21T10:20:44;2.67;;;0.65;;
36385;SDS011;24125;47.482;8.770;2022-11-21T10:23:39;5.10;;;0.80;;
36385;SDS011;24125;47.482;8.770;2022-11-21T10:26:29;2.03;;;0.60;;
36385;SDS011;24125;47.482;8.770;2022-11-21T10:29:13;1.25;;;0.50;;
36385;SDS011;24125;47.482;8.770;2022-11-21T10:31:51;1.02;;;0.30;;
36385;SDS011;24125;47.482;8.770;2022-11-21T10:34:28;5.28;;;0.82;;
36385;SDS011;24125;47.482;8.770;2022-11-21T10:37:06;2.33;;;0.50;;
36385;SDS011;24125;47.482;8.770;2022-11-21T10:39:45;3.83;;;0.57;;
36385;SDS011;24125;47.482;8.770;2022-11-21T10:42:26;1.60;;;0.45;;
36385;SDS011;24125;47.482;8.770;2022-11-21T10:45:03;1.70;;;0.50;;
36385;SDS011;24125;47.482;8.770;2022-11-21T10:47:50;1.92;;;0.50;;
36385;SDS011;24125;47.482;8.770;2022-11-21T10:50:38;2.08;;;0.55;;
36385;SDS011;24125;47.482;8.770;2022-11-21T10:53:18;0.88;;;0.40;;
36385;SDS011;24125;47.482;8.770;2022-11-21T10:56:11;3.22;;;0.60;;
36385;SDS011;24125;47.482;8.770;2022-11-21T10:58:48;2.55;;;0.60;;
36385;SDS011;24125;47.482;8.770;2022-11-21T11:01:26;3.47;;;0.65;;
36385;SDS011;24125;47.482;8.770;2022-11-21T11:04:05;4.10;;;1.00;;
36385;SDS011;24125;47.482;8.770;2022-11-21T11:07:12;2.67;;;1.00;;
36385;SDS011;24125;47.482;8.770;2022-11-21T11:09:52;1.85;;;0.60;;
36385;SDS011;24125;47.482;8.770;2022-11-21T11:12:46;2.10;;;0.70;;
36385;SDS011;24125;47.482;8.770;2022-11-21T11:16:01;1.50;;;0.60;;
36385;SDS011;24125;47.482;8.770;2022-11-21T11:18:36;1.42;;;0.40;;
36385;SDS011;24125;47.482;8.770;2022-11-21T11:21:16;2.42;;;0.43;;
36385;SDS011;24125;47.482;8.770;2022-11-21T11:23:52;3.22;;;0.70;;
36385;SDS011;24125;47.482;8.770;2022-11-21T11:26:27;3.10;;;0.60;;
36385;SDS011;24125;47.482;8.770;2022-11-21T11:29:06;1.45;;;0.38;;
36385;SDS011;24125;47.482;8.770;2022-11-21T11:31:44;2.25;;;0.50;;
36385;SDS011;24125;47.482;8.770;2022-11-21T11:34:25;2.72;;;0.80;;
36385;SDS011;24125;47.482;8.770;2022-11-21T11:37:03;2.00;;;0.80;;
36385;SDS011;24125;47.482;8.770;2022-11-21T11:39:44;2.22;;;0.60;;
36385;SDS011;24125;47.482;8.770;2022-11-21T11:42:31;0.75;;;0.40;;
36385;SDS011;24125;47.482;8.770;2022-11-21T11:45:40;2.22;;;0.50;;
36385;SDS011;24125;47.482;8.770;2022-11-21T11:48:46;3.67;;;0.45;;
36385;SDS011;24125;47.482;8.770;2022-11-21T11:51:41;1.33;;;0.38;;
36385;SDS011;24125;47.482;8.770;2022-11-21T11:54:19;2.65;;;0.68;;
36385;SDS011;24125;47.482;8.770;2022-11-21T11:56:55;1.98;;;0.40;;
36385;SDS011;24125;47.482;8.770;2022-11-21T11:59:30;1.65;;;0.70;;
36385;SDS011;24125;47.482;8.770;2022-11-21T12:02:09;3.22;;;1.10;;
36385;SDS011;24125;47.482;8.770;2022-11-21T12:04:53;1.63;;;0.70;;
36385;SDS011;24125;47.482;8.770;2022-11-21T12:07:33;2.25;;;0.50;;
36385;SDS011;24125;47.482;8.770;2022-11-21T12:10:32;0.57;;;0.30;;
36385;SDS011;24125;47.482;8.770;2022-11-21T12:13:31;2.13;;;0.30;;
36385;SDS011;24125;47.482;8.770;2022-11-21T12:16:08;1.10;;;0.50;;
36385;SDS011;24125;47.482;8.770;2022-11-21T12:18:47;1.98;;;0.40;;
36385;SDS011;24125;47.482;8.770;2022-11-21T12:21:25;1.30;;;0.50;;
36385;SDS011;24125;47.482;8.770;2022-11-21T12:24:00;1.27;;;0.40;;
36385;SDS011;24125;47.482;8.770;2022-11-21T12:26:35;1.48;;;0.52;;
36385;SDS011;24125;47.482;8.770;2022-11-21T12:29:23;1.77;;;0.50;;
36385;SDS011;24125;47.482;8.770;2022-11-21T12:32:12;1.90;;;0.65;;
36385;SDS011;24125;47.482;8.770;2022-11-21T12:38:01;2.63;;;0.30;;
36385;SDS011;24125;47.482;8.770;2022-11-21T12:40:42;2.25;;;0.50;;
36385;SDS011;24125;47.482;8.770;2022-11-21T12:43:26;0.75;;;0.40;;
36385;SDS011;24125;47.482;8.770;2022-11-21T12:46:06;0.70;;;0.40;;
36385;SDS011;24125;47.482;8.770;2022-11-21T12:48:50;1.73;;;0.30;;
36385;SDS011;24125;47.482;8.770;2022-11-21T12:51:59;1.65;;;0.40;;
36385;SDS011;24125;47.482;8.770;2022-11-21T12:55:18;0.90;;;0.30;;
36385;SDS011;24125;47.482;8.770;2022-11-21T12:58:12;0.32;;;0.20;;
36385;SDS011;24125;47.482;8.770;2022-11-21T13:00:59;2.05;;;0.50;;
36385;SDS011;24125;47.482;8.770;2022-11-21T13:03:53;1.88;;;0.52;;
36385;SDS011;24125;47.482;8.770;2022-11-21T13:06:32;2.80;;;0.63;;
36385;SDS011;24125;47.482;8.770;2022-11-21T13:09:12;0.70;;;0.30;;
36385;SDS011;24125;47.482;8.770;2022-11-21T13:11:52;2.30;;;0.30;;
36385;SDS011;24125;47.482;8.770;2022-11-21T13:14:35;2.08;;;0.50;;
36385;SDS011;24125;47.482;8.770;2022-11-21T13:17:25;1.00;;;0.28;;
36385;SDS011;24125;47.482;8.770;2022-11-21T13:20:12;1.27;;;0.30;;
36385;SDS011;24125;47.482;8.770;2022-11-21T13:22:52;1.75;;;0.68;;
36385;SDS011;24125;47.482;8.770;2022-11-21T13:31:26;1.65;;;0.60;;
36385;SDS011;24125;47.482;8.770;2022-11-21T13:34:01;0.80;;;0.38;;
36385;SDS011;24125;47.482;8.770;2022-11-21T13:36:36;0.80;;;0.38;;
36385;SDS011;24125;47.482;8.770;2022-11-21T13:39:25;0.85;;;0.50;;
36385;SDS011;24125;47.482;8.770;2022-11-21T13:42:01;0.50;;;0.40;;
36385;SDS011;24125;47.482;8.770;2022-11-21T13:44:55;2.30;;;0.40;;
36385;SDS011;24125;47.482;8.770;2022-11-21T13:50:41;1.40;;;0.40;;
36385;SDS011;24125;47.482;8.770;2022-11-21T13:53:39;1.35;;;0.40;;
36385;SDS011;24125;47.482;8.770;2022-11-21T13:56:33;1.92;;;0.40;;
36385;SDS011;24125;47.482;8.770;2022-11-21T13:59:17;2.75;;;0.50;;
36385;SDS011;24125;47.482;8.770;2022-11-21T14:02:10;1.70;;;0.40;;
36385;SDS011;24125;47.482;8.770;2022-11-21T14:05:03;2.70;;;0.40;;
36385;SDS011;24125;47.482;8.770;2022-11-21T14:07:51;1.52;;;0.60;;
36385;SDS011;24125;47.482;8.770;2022-11-21T14:10:30;0.25;;;0.20;;
36385;SDS011;24125;47.482;8.770;2022-11-21T14:13:04;0.88;;;0.40;;
36385;SDS011;24125;47.482;8.770;2022-11-21T14:15:39;1.77;;;0.60;;
36385;SDS011;24125;47.482;8.770;2022-11-21T14:18:24;1.45;;;0.47;;
36385;SDS011;24125;47.482;8.770;2022-11-21T14:20:58;2.95;;;0.40;;
36385;SDS011;24125;47.482;8.770;2022-11-21T14:23:33;2.45;;;0.50;;
36385;SDS011;24125;47.482;8.770;2022-11-21T14:26:09;2.10;;;0.47;;
36385;SDS011;24125;47.482;8.770;2022-11-21T14:28:46;2.17;;;0.63;;
36385;SDS011;24125;47.482;8.770;2022-11-21T14:31:19;6.47;;;1.15;;
36385;SDS011;24125;47.482;8.770;2022-11-21T14:33:56;1.70;;;0.60;;
36385;SDS011;24125;47.482;8.770;2022-11-21T14:36:29;2.85;;;0.75;;
36385;SDS011;24125;47.482;8.770;2022-11-21T14:39:05;1.70;;;0.70;;
36385;SDS011;24125;47.482;8.770;2022-11-21T14:42:01;2.47;;;0.40;;
36385;SDS011;24125;47.482;8.770;2022-11-21T14:44:35;4.78;;;0.82;;
36385;SDS011;24125;47.482;8.770;2022-11-21T14:47:12;1.73;;;0.50;;
36385;SDS011;24125;47.482;8.770;2022-11-21T14:49:58;2.20;;;0.30;;
36385;SDS011;24125;47.482;8.770;2022-11-21T14:52:37;1.70;;;0.43;;
36385;SDS011;24125;47.482;8.770;2022-11-21T14:55:17;1.15;;;0.50;;
36385;SDS011;24125;47.482;8.770;2022-11-21T15:00:37;1.65;;;0.60;;
36385;SDS011;24125;47.482;8.770;2022-11-21T15:03:30;2.28;;;0.70;;
36385;SDS011;24125;47.482;8.770;2022-11-21T15:06:04;2.30;;;0.70;;
36385;SDS011;24125;47.482;8.770;2022-11-21T15:08:42;2.20;;;0.70;;
36385;SDS011;24125;47.482;8.770;2022-11-21T15:11:36;3.28;;;0.73;;
36385;SDS011;24125;47.482;8.770;2022-11-21T15:14:15;1.23;;;0.55;;
36385;SDS011;24125;47.482;8.770;2022-11-21T15:19:27;2.53;;;0.65;;
36385;SDS011;24125;47.482;8.770;2022-11-21T15:22:04;3.50;;;0.80;;
36385;SDS011;24125;47.482;8.770;2022-11-21T15:24:38;3.60;;;0.70;;
36385;SDS011;24125;47.482;8.770;2022-11-21T15:27:27;5.15;;;1.10;;
36385;SDS011;24125;47.482;8.770;2022-11-21T15:32:58;2.70;;;0.70;;
36385;SDS011;24125;47.482;8.770;2022-11-21T15:38:30;1.85;;;0.60;;
36385;SDS011;24125;47.482;8.770;2022-11-21T15:41:05;4.20;;;0.90;;
36385;SDS011;24125;47.482;8.770;2022-11-21T15:46:50;4.25;;;1.00;;
36385;SDS011;24125;47.482;8.770;2022-11-21T15:49:24;4.95;;;0.98;;
36385;SDS011;24125;47.482;8.770;2022-11-21T15:52:07;5.65;;;1.35;;
36385;SDS011;24125;47.482;8.770;2022-11-21T15:54:45;3.83;;;1.20;;
36385;SDS011;24125;47.482;8.770;2022-11-21T15:57:18;2.65;;;1.02;;
36385;SDS011;24125;47.482;8.770;2022-11-21T15:59:52;1.98;;;0.85;;
36385;SDS011;24125;47.482;8.770;2022-11-21T16:02:25;3.00;;;1.30;;
36385;SDS011;24125;47.482;8.770;2022-11-21T16:04:58;11.93;;;1.42;;
36385;SDS011;24125;47.482;8.770;2022-11-21T16:07:31;3.25;;;1.10;;
36385;SDS011;24125;47.482;8.770;2022-11-21T16:10:06;6.32;;;1.10;;
36385;SDS011;24125;47.482;8.770;2022-11-21T16:12:49;3.40;;;1.30;;
36385;SDS011;24125;47.482;8.770;2022-11-21T16:15:22;5.22;;;1.08;;
36385;SDS011;24125;47.482;8.770;2022-11-21T16:17:55;1.65;;;0.77;;
36385;SDS011;24125;47.482;8.770;2022-11-21T16:20:28;1.58;;;1.00;;
36385;SDS011;24125;47.482;8.770;2022-11-21T16:23:01;5.50;;;1.38;;